createdAt,value
2022-08-21T00:01:04.534Z,3.80
2022-08-21T00:03:35.625Z,3.58
2022-08-21T00:06:03.958Z,3.85
2022-08-21T00:08:32.100Z,3.35
2022-08-21T00:11:00.620Z,4.18
2022-08-21T00:13:30.121Z,3.97
2022-08-21T00:15:58.422Z,4.80
2022-08-21T00:18:26.815Z,4.13
2022-08-21T00:20:55.029Z,4.30
2022-08-21T00:23:23.776Z,3.97
2022-08-21T00:25:53.375Z,4.00
2022-08-21T00:28:22.785Z,4.57
2022-08-21T00:30:52.312Z,4.53
2022-08-21T00:33:20.847Z,4.18
2022-08-21T00:35:51.168Z,4.65
2022-08-21T00:38:19.571Z,4.60
2022-08-21T00:40:54.047Z,4.07
2022-08-21T00:43:24.953Z,4.38
2022-08-21T00:45:55.485Z,4.40
2022-08-21T00:48:24.739Z,4.30
2022-08-21T00:50:59.260Z,4.00
2022-08-21T00:53:28.837Z,4.38
2022-08-21T00:55:57.751Z,4.55
2022-08-21T00:58:28.459Z,4.45
2022-08-21T01:00:59.083Z,4.60
2022-08-21T01:03:27.747Z,4.63
2022-08-21T01:09:48.097Z,4.68
2022-08-21T01:12:17.229Z,4.57
2022-08-21T01:14:46.437Z,4.45
2022-08-21T01:17:16.939Z,4.60
2022-08-21T01:19:45.346Z,3.97
2022-08-21T01:22:15.279Z,5.03
2022-08-21T01:24:43.378Z,4.82
2022-08-21T01:27:11.795Z,4.53
2022-08-21T01:29:46.733Z,4.78
2022-08-21T01:32:17.689Z,4.38
2022-08-21T01:34:48.422Z,5.13
2022-08-21T01:37:20.211Z,4.57
2022-08-21T01:39:49.370Z,4.28
2022-08-21T01:42:17.582Z,4.55
2022-08-21T01:44:46.539Z,4.68
2022-08-21T01:47:17.562Z,4.78
2022-08-21T01:49:47.564Z,4.80
2022-08-21T01:52:17.814Z,4.90
2022-08-21T01:54:46.192Z,4.43
2022-08-21T01:57:26.158Z,4.10
2022-08-21T01:59:54.574Z,4.60
2022-08-21T02:02:22.708Z,4.75
2022-08-21T02:04:50.800Z,4.68
2022-08-21T02:07:20.808Z,4.70
2022-08-21T02:09:48.889Z,5.10
2022-08-21T02:12:16.990Z,4.47
2022-08-21T02:14:45.025Z,4.28
2022-08-21T02:17:13.247Z,4.55
2022-08-21T02:19:41.622Z,4.63
2022-08-21T02:22:10.234Z,4.95
2022-08-21T02:25:33.339Z,5.18
2022-08-21T02:28:06.335Z,4.18
2022-08-21T02:30:40.972Z,4.50
2022-08-21T02:33:10.889Z,5.32
2022-08-21T02:35:39.537Z,4.90
2022-08-21T02:38:12.987Z,4.22
2022-08-21T02:40:48.044Z,5.10
2022-08-21T02:43:19.015Z,4.97
2022-08-21T02:45:53.058Z,4.70
2022-08-21T02:48:25.959Z,4.53
2022-08-21T02:50:57.531Z,5.00
2022-08-21T02:53:26.446Z,4.72
2022-08-21T02:55:55.643Z,5.13
2022-08-21T02:58:28.545Z,4.90
2022-08-21T03:00:56.658Z,5.32
2022-08-21T03:03:24.860Z,5.15
2022-08-21T03:05:59.591Z,5.30
2022-08-21T03:08:27.983Z,5.25
2022-08-21T03:10:56.650Z,6.18
2022-08-21T03:13:26.092Z,5.60
2022-08-21T03:15:54.216Z,6.13
2022-08-21T03:18:22.770Z,5.60
2022-08-21T03:20:51.411Z,5.55
2022-08-21T03:23:20.004Z,6.10
2022-08-21T03:25:49.441Z,5.28
2022-08-21T03:28:20.366Z,5.40
2022-08-21T03:30:51.896Z,5.75
2022-08-21T03:33:23.364Z,5.57
2022-08-21T03:35:58.955Z,5.70
2022-08-21T03:38:28.317Z,4.90
2022-08-21T03:40:56.554Z,4.95
2022-08-21T03:43:24.919Z,5.38
2022-08-21T03:45:57.159Z,5.88
2022-08-21T03:48:25.782Z,5.07
2022-08-21T03:50:55.793Z,5.40
2022-08-21T03:53:24.387Z,5.43
2022-08-21T03:55:54.301Z,5.95
2022-08-21T03:58:25.213Z,5.60
2022-08-21T04:01:00.847Z,4.97
2022-08-21T04:03:30.594Z,5.53
2022-08-21T04:05:58.627Z,5.78
2022-08-21T04:08:26.848Z,5.40
2022-08-21T04:10:57.371Z,5.20
2022-08-21T04:13:25.741Z,5.38
2022-08-21T04:15:55.219Z,5.80
2022-08-21T04:18:23.432Z,5.53
2022-08-21T04:20:54.122Z,6.07
2022-08-21T04:23:24.180Z,6.20
2022-08-21T04:25:53.102Z,5.65
2022-08-21T04:28:21.592Z,5.18
2022-08-21T04:30:53.195Z,5.32
2022-08-21T04:33:24.410Z,5.38
2022-08-21T04:35:52.828Z,6.05
2022-08-21T04:38:22.294Z,5.47
2022-08-21T04:40:51.184Z,6.00
2022-08-21T04:43:20.397Z,5.85
2022-08-21T04:45:50.517Z,5.68
2022-08-21T04:48:22.024Z,5.68
2022-08-21T04:50:55.455Z,5.82
2022-08-21T04:53:28.454Z,5.85
2022-08-21T04:55:59.987Z,6.28
2022-08-21T04:58:29.234Z,6.18
2022-08-21T05:01:00.313Z,5.97
2022-08-21T05:03:29.371Z,5.68
2022-08-21T05:05:59.211Z,5.68
2022-08-21T05:08:29.918Z,5.57
2022-08-21T05:11:00.668Z,6.78
2022-08-21T05:13:34.362Z,6.07
2022-08-21T05:16:04.626Z,6.32
2022-08-21T05:18:33.093Z,7.10
2022-08-21T05:21:03.549Z,6.30
2022-08-21T05:23:31.592Z,6.57
2022-08-21T05:26:00.058Z,6.75
2022-08-21T05:28:28.111Z,6.85
2022-08-21T05:30:56.650Z,6.78
2022-08-21T05:33:24.944Z,7.40
2022-08-21T05:35:56.815Z,6.93
2022-08-21T05:38:28.348Z,7.28
2022-08-21T05:40:56.605Z,7.93
2022-08-21T05:43:24.877Z,7.40
2022-08-21T05:45:53.145Z,7.40
2022-08-21T05:48:25.402Z,7.72
2022-08-21T05:50:55.443Z,7.78
2022-08-21T05:53:27.416Z,7.13
2022-08-21T05:56:17.060Z,6.45
2022-08-21T05:58:46.128Z,7.95
2022-08-21T06:01:15.864Z,7.47
2022-08-21T06:03:44.433Z,7.53
2022-08-21T06:06:12.561Z,7.10
2022-08-21T06:08:42.091Z,7.57
2022-08-21T06:11:11.017Z,7.28
2022-08-21T06:13:42.992Z,7.78
2022-08-21T06:16:15.904Z,7.53
2022-08-21T06:18:45.682Z,7.63
2022-08-21T06:21:14.728Z,7.18
2022-08-21T06:23:44.715Z,6.68
2022-08-21T06:26:14.633Z,7.32
2022-08-21T06:28:44.197Z,7.60
2022-08-21T06:31:15.192Z,6.35
2022-08-21T06:33:45.571Z,7.28
2022-08-21T06:36:14.203Z,7.45
2022-08-21T06:38:50.974Z,6.72
2022-08-21T06:41:22.533Z,6.35
2022-08-21T06:43:55.214Z,6.45
2022-08-21T06:46:23.699Z,6.57
2022-08-21T06:48:51.774Z,5.80
2022-08-21T06:51:20.394Z,5.85
2022-08-21T06:53:50.536Z,5.93
2022-08-21T06:56:19.009Z,5.90
2022-08-21T06:58:47.294Z,6.47
2022-08-21T07:01:15.430Z,6.07
2022-08-21T07:03:45.081Z,5.75
2022-08-21T07:06:13.478Z,5.57
2022-08-21T07:08:41.548Z,6.00
2022-08-21T07:11:15.002Z,5.95
2022-08-21T07:13:43.062Z,6.10
2022-08-21T07:16:11.524Z,6.30
2022-08-21T07:18:39.848Z,6.47
2022-08-21T07:21:08.868Z,6.00
2022-08-21T07:23:39.757Z,6.15
2022-08-21T07:26:08.539Z,6.03
2022-08-21T07:28:38.203Z,6.07
2022-08-21T07:31:07.186Z,6.97
2022-08-21T07:33:37.064Z,5.80
2022-08-21T07:36:05.525Z,5.25
2022-08-21T07:38:33.664Z,6.20
2022-08-21T07:41:03.420Z,6.28
2022-08-21T07:43:31.894Z,6.50
2022-08-21T07:46:01.638Z,6.30
2022-08-21T07:48:29.657Z,6.43
2022-08-21T07:50:57.891Z,6.40
2022-08-21T07:53:25.909Z,5.45
2022-08-21T07:55:54.170Z,5.75
2022-08-21T07:58:22.322Z,4.90
2022-08-21T08:00:50.589Z,5.57
2022-08-21T08:03:20.580Z,5.53
2022-08-21T08:05:56.918Z,5.28
2022-08-21T08:08:25.079Z,4.97
2022-08-21T08:10:53.856Z,5.43
2022-08-21T08:13:21.867Z,5.00
2022-08-21T08:15:50.116Z,5.43
2022-08-21T08:18:19.688Z,5.00
2022-08-21T08:20:47.711Z,5.30
2022-08-21T08:23:17.096Z,5.50
2022-08-21T08:25:45.152Z,5.13
2022-08-21T08:28:17.459Z,5.22
2022-08-21T08:30:46.619Z,5.20
2022-08-21T08:33:15.316Z,4.70
2022-08-21T08:35:48.542Z,5.13
2022-08-21T08:38:19.788Z,4.80
2022-08-21T08:40:55.631Z,5.03
2022-08-21T08:43:23.893Z,4.63
2022-08-21T08:45:55.516Z,5.10
2022-08-21T08:48:38.520Z,4.97
2022-08-21T08:51:15.433Z,5.10
2022-08-21T08:53:53.105Z,4.00
2022-08-21T08:56:28.585Z,4.28
2022-08-21T08:58:59.626Z,3.60
2022-08-21T09:01:29.083Z,4.40
2022-08-21T09:03:58.768Z,3.65
2022-08-21T09:06:40.106Z,3.30
2022-08-21T09:09:20.657Z,3.00
2022-08-21T09:11:59.171Z,2.95
2022-08-21T09:14:38.927Z,2.60
2022-08-21T09:17:16.716Z,2.60
2022-08-21T09:19:56.922Z,3.45
2022-08-21T09:22:38.380Z,2.95
2022-08-21T09:25:14.283Z,2.70
2022-08-21T09:27:42.403Z,2.67
2022-08-21T09:30:11.839Z,2.60
2022-08-21T09:32:41.218Z,2.88
2022-08-21T09:35:12.768Z,2.58
2022-08-21T09:37:52.648Z,2.08
2022-08-21T09:40:31.694Z,1.83
2022-08-21T09:43:03.377Z,2.53
2022-08-21T09:45:34.085Z,2.95
2022-08-21T09:48:20.683Z,2.78
2022-08-21T09:50:50.035Z,2.70
2022-08-21T09:53:22.974Z,2.50
2022-08-21T09:56:12.266Z,1.98
2022-08-21T09:58:43.701Z,2.20
2022-08-21T10:01:19.276Z,1.90
2022-08-21T10:03:50.950Z,2.00
2022-08-21T10:06:27.769Z,1.88
2022-08-21T10:09:08.437Z,1.80
2022-08-21T10:11:36.921Z,2.38
2022-08-21T10:14:19.283Z,2.58
2022-08-21T10:17:00.583Z,2.30
2022-08-21T10:19:37.880Z,2.55
2022-08-21T10:22:18.859Z,1.90
2022-08-21T10:24:59.561Z,2.33
2022-08-21T10:27:37.288Z,1.83
2022-08-21T10:30:10.783Z,2.03
2022-08-21T10:32:50.405Z,1.70
2022-08-21T10:35:24.121Z,2.17
2022-08-21T10:38:28.199Z,1.88
2022-08-21T10:41:12.741Z,1.85
2022-08-21T10:43:49.773Z,1.60
2022-08-21T10:46:22.546Z,1.83
2022-08-21T10:48:56.975Z,1.60
2022-08-21T10:51:37.766Z,1.95
2022-08-21T10:54:19.092Z,1.83
2022-08-21T10:56:56.683Z,1.80
2022-08-21T10:59:36.624Z,3.50
2022-08-21T11:02:17.247Z,1.85
2022-08-21T11:04:55.029Z,1.88
2022-08-21T11:07:34.326Z,1.98
2022-08-21T11:10:10.269Z,1.85
2022-08-21T11:12:45.124Z,2.15
2022-08-21T11:15:35.895Z,2.03
2022-08-21T11:18:17.491Z,1.50
2022-08-21T11:20:51.155Z,1.90
2022-08-21T11:23:26.057Z,1.70
2022-08-21T11:26:00.408Z,1.50
2022-08-21T11:28:35.026Z,1.80
2022-08-21T11:31:14.953Z,1.50
2022-08-21T11:33:55.158Z,2.10
2022-08-21T11:36:39.090Z,1.40
2022-08-21T11:39:18.896Z,1.70
2022-08-21T11:41:56.041Z,1.75
2022-08-21T11:44:36.913Z,1.50
2022-08-21T11:47:14.882Z,1.48
2022-08-21T11:49:55.336Z,1.50
2022-08-21T11:52:28.291Z,1.67
2022-08-21T11:55:02.010Z,2.05
2022-08-21T11:57:36.038Z,1.77
2022-08-21T12:00:12.383Z,2.65
2022-08-21T12:02:45.517Z,2.05
2022-08-21T12:05:25.205Z,1.67
2022-08-21T12:08:04.212Z,1.30
2022-08-21T12:10:36.052Z,1.58
2022-08-21T12:13:14.724Z,1.45
2022-08-21T12:15:44.432Z,1.60
2022-08-21T12:18:25.488Z,1.15
2022-08-21T12:21:04.790Z,1.23
2022-08-21T12:23:37.838Z,1.48
2022-08-21T12:26:21.487Z,1.77
2022-08-21T12:28:50.135Z,2.13
2022-08-21T12:31:26.124Z,1.75
2022-08-21T12:33:58.675Z,1.60
2022-08-21T12:36:40.327Z,1.70
2022-08-21T12:39:16.013Z,1.45
2022-08-21T12:41:52.295Z,1.40
2022-08-21T12:44:29.769Z,1.77
2022-08-21T12:47:04.292Z,1.88
2022-08-21T12:49:37.013Z,1.95
2022-08-21T12:52:13.554Z,1.50
2022-08-21T12:54:47.274Z,1.60
2022-08-21T12:57:22.486Z,1.70
2022-08-21T12:59:56.127Z,1.85
2022-08-21T13:02:30.414Z,1.70
2022-08-21T13:04:59.682Z,1.70
2022-08-21T13:07:34.784Z,1.58
2022-08-21T13:10:06.681Z,1.92
2022-08-21T13:12:37.402Z,1.50
2022-08-21T13:15:09.111Z,1.83
2022-08-21T13:21:16.338Z,1.70
2022-08-21T13:23:45.053Z,1.30
2022-08-21T13:26:19.442Z,1.90
2022-08-21T13:28:48.603Z,1.80
2022-08-21T13:31:26.435Z,1.70
2022-08-21T13:33:57.210Z,1.58
2022-08-21T13:36:31.876Z,1.30
2022-08-21T13:39:00.671Z,1.30
2022-08-21T13:41:31.790Z,1.05
2022-08-21T13:44:02.771Z,1.35
2022-08-21T13:46:33.638Z,1.27
2022-08-21T13:49:03.702Z,1.42
2022-08-21T13:51:34.056Z,1.38
2022-08-21T13:54:02.197Z,1.10
2022-08-21T13:56:33.829Z,1.40
2022-08-21T13:59:07.258Z,1.20
2022-08-21T14:01:41.196Z,1.58
2022-08-21T14:04:21.504Z,1.02
2022-08-21T14:06:51.935Z,1.50
2022-08-21T14:09:28.882Z,1.48
2022-08-21T14:11:58.508Z,1.50
2022-08-21T14:14:30.126Z,1.50
2022-08-21T14:17:01.049Z,1.33
2022-08-21T14:19:49.093Z,1.65
2022-08-21T14:22:41.033Z,1.50
2022-08-21T14:25:12.447Z,1.33
2022-08-21T14:27:45.724Z,1.50
2022-08-21T14:30:21.043Z,1.00
2022-08-21T14:32:49.861Z,1.35
2022-08-21T14:35:18.800Z,1.00
2022-08-21T14:37:55.164Z,1.10
2022-08-21T14:40:25.590Z,1.50
2022-08-21T14:42:54.493Z,1.42
2022-08-21T14:45:28.258Z,1.63
2022-08-21T14:47:57.240Z,1.40
2022-08-21T14:50:28.067Z,1.45
2022-08-21T14:52:58.357Z,1.38
2022-08-21T14:55:27.284Z,1.30
2022-08-21T14:57:57.544Z,1.83
2022-08-21T15:00:35.842Z,1.35
2022-08-21T15:03:05.164Z,0.88
2022-08-21T15:05:34.333Z,1.48
2022-08-21T15:08:05.241Z,1.27
2022-08-21T15:10:44.149Z,1.80
2022-08-21T15:13:20.835Z,1.50
2022-08-21T15:15:51.883Z,1.20
2022-08-21T15:18:20.318Z,1.58
2022-08-21T15:20:48.417Z,1.38
2022-08-21T15:23:18.305Z,1.48
2022-08-21T15:25:48.843Z,1.45
2022-08-21T15:28:19.210Z,1.15
2022-08-21T15:30:47.872Z,1.38
2022-08-21T15:33:16.414Z,1.60
2022-08-21T15:35:44.921Z,1.50
2022-08-21T15:38:13.274Z,1.88
2022-08-21T15:40:51.598Z,1.67
2022-08-21T15:43:29.914Z,1.73
2022-08-21T15:46:00.255Z,1.02
2022-08-21T15:48:28.849Z,1.67
2022-08-21T15:50:57.079Z,2.22
2022-08-21T15:53:25.343Z,1.92
2022-08-21T15:55:56.251Z,1.73
2022-08-21T15:58:24.833Z,1.75
2022-08-21T16:00:53.234Z,1.55
2022-08-21T16:03:22.960Z,1.45
2022-08-21T16:05:53.461Z,1.55
2022-08-21T16:08:22.114Z,1.23
2022-08-21T16:10:50.864Z,2.10
2022-08-21T16:13:25.360Z,1.88
2022-08-21T16:15:54.090Z,2.30
2022-08-21T16:18:24.279Z,2.17
2022-08-21T16:20:52.555Z,1.70
2022-08-21T16:23:21.687Z,1.73
2022-08-21T16:25:50.247Z,1.40
2022-08-21T16:28:22.207Z,1.50
2022-08-21T16:30:52.064Z,2.25
2022-08-21T16:33:26.849Z,1.95
2022-08-21T16:35:55.514Z,1.85
2022-08-21T16:38:24.030Z,1.83
2022-08-21T16:40:53.173Z,1.67
2022-08-21T16:43:25.626Z,1.38
2022-08-21T16:45:54.662Z,2.03
2022-08-21T16:48:26.965Z,1.90
2022-08-21T16:50:56.142Z,1.73
2022-08-21T16:53:26.603Z,1.90
2022-08-21T16:55:55.084Z,1.70
2022-08-21T16:58:29.441Z,1.83
2022-08-21T17:00:58.794Z,2.30
2022-08-21T17:03:32.584Z,1.60
2022-08-21T17:06:00.636Z,2.05
2022-08-21T17:08:28.906Z,1.92
2022-08-21T17:10:57.904Z,2.20
2022-08-21T17:13:28.365Z,1.92
2022-08-21T17:15:56.778Z,1.60
2022-08-21T17:18:26.402Z,1.80
2022-08-21T17:20:55.092Z,2.28
2022-08-21T17:23:23.261Z,2.63
2022-08-21T17:25:54.206Z,2.05
2022-08-21T17:28:25.502Z,1.55
2022-08-21T17:30:58.342Z,1.90
2022-08-21T17:33:30.844Z,1.88
2022-08-21T17:35:58.973Z,2.20
2022-08-21T17:38:27.936Z,2.38
2022-08-21T17:40:57.460Z,2.30
2022-08-21T17:43:26.766Z,2.53
2022-08-21T17:45:56.347Z,2.10
2022-08-21T17:48:26.913Z,1.75
2022-08-21T17:54:43.075Z,2.05
2022-08-21T17:57:19.457Z,2.00
2022-08-21T17:59:56.467Z,2.20
2022-08-21T18:02:30.637Z,1.80
2022-08-21T18:04:59.031Z,2.20
2022-08-21T18:07:32.578Z,1.83
2022-08-21T18:10:04.364Z,2.42
2022-08-21T18:12:33.244Z,2.13
2022-08-21T18:15:02.262Z,2.58
2022-08-21T18:17:33.757Z,2.20
2022-08-21T18:20:02.414Z,2.30
2022-08-21T18:22:30.501Z,1.90
2022-08-21T18:25:00.237Z,2.67
2022-08-21T18:27:29.831Z,2.45
2022-08-21T18:30:01.341Z,2.15
2022-08-21T18:32:32.337Z,2.13
2022-08-21T18:35:02.967Z,2.17
2022-08-21T18:37:32.009Z,2.10
2022-08-21T18:40:00.461Z,2.40
2022-08-21T18:42:32.292Z,2.88
2022-08-21T18:45:03.329Z,3.28
2022-08-21T18:47:37.463Z,2.53
2022-08-21T18:52:51.122Z,2.60
2022-08-21T18:55:24.485Z,2.60
2022-08-21T18:57:53.196Z,2.90
2022-08-21T19:00:24.830Z,3.00
2022-08-21T19:02:54.750Z,2.88
2022-08-21T19:05:24.146Z,2.28
2022-08-21T19:07:53.452Z,2.70
2022-08-21T19:10:28.340Z,2.63
2022-08-21T19:12:58.446Z,2.55
2022-08-21T19:15:26.996Z,3.08
2022-08-21T19:17:59.168Z,2.80
2022-08-21T19:20:30.742Z,3.33
2022-08-21T19:22:58.858Z,2.80
2022-08-21T19:25:33.813Z,2.53
2022-08-21T19:28:03.867Z,2.38
2022-08-21T19:30:40.709Z,3.28
2022-08-21T19:36:06.985Z,2.55
2022-08-21T19:38:35.832Z,3.03
2022-08-21T19:41:08.403Z,2.38
2022-08-21T19:43:42.685Z,2.15
2022-08-21T19:46:11.467Z,2.28
2022-08-21T19:48:41.253Z,2.95
2022-08-21T19:51:15.188Z,2.65
2022-08-21T19:53:43.267Z,2.60
2022-08-21T19:56:15.603Z,2.20
2022-08-21T19:58:47.320Z,1.95
2022-08-21T20:01:19.925Z,2.22
2022-08-21T20:03:54.270Z,2.40
2022-08-21T20:06:24.389Z,2.38
2022-08-21T20:08:54.721Z,2.45
2022-08-21T20:11:27.309Z,2.50
2022-08-21T20:13:56.144Z,2.55
2022-08-21T20:16:24.167Z,2.15
2022-08-21T20:18:55.449Z,2.63
2022-08-21T20:21:23.760Z,2.65
2022-08-21T20:23:51.833Z,2.15
2022-08-21T20:26:20.246Z,2.38
2022-08-21T20:28:50.511Z,2.83
2022-08-21T20:31:21.491Z,2.60
2022-08-21T20:33:51.284Z,2.30
2022-08-21T20:36:22.608Z,2.20
2022-08-21T20:38:52.135Z,2.40
2022-08-21T20:41:30.455Z,2.13
2022-08-21T20:44:00.335Z,2.42
2022-08-21T20:46:31.058Z,2.20
2022-08-21T20:49:00.323Z,2.45
2022-08-21T20:51:33.256Z,2.70
2022-08-21T20:54:06.614Z,2.40
2022-08-21T20:56:42.225Z,2.50
2022-08-21T20:59:20.747Z,2.58
2022-08-21T21:01:49.933Z,2.55
2022-08-21T21:04:31.444Z,2.80
2022-08-21T21:07:02.892Z,2.67
2022-08-21T21:09:41.041Z,3.00
2022-08-21T21:12:16.298Z,2.65
2022-08-21T21:14:48.157Z,2.38
2022-08-21T21:17:28.223Z,2.58
2022-08-21T21:20:01.266Z,2.60
2022-08-21T21:22:37.131Z,2.38
2022-08-21T21:25:12.330Z,2.38
2022-08-21T21:27:48.933Z,2.63
2022-08-21T21:30:21.418Z,2.40
2022-08-21T21:32:49.949Z,2.70
2022-08-21T21:35:32.243Z,2.38
2022-08-21T21:38:18.560Z,2.50
2022-08-21T21:40:57.867Z,2.35
2022-08-21T21:43:41.122Z,2.38
2022-08-21T21:46:22.088Z,2.38
2022-08-21T21:49:01.146Z,2.13
2022-08-21T21:51:44.899Z,2.28
2022-08-21T21:56:56.954Z,2.05
2022-08-21T21:59:39.662Z,2.70
2022-08-21T22:02:15.947Z,2.15
2022-08-21T22:04:56.481Z,2.00
2022-08-21T22:07:34.334Z,2.15
2022-08-21T22:10:30.043Z,2.00
2022-08-21T22:13:09.908Z,2.22
2022-08-21T22:18:33.981Z,2.20
2022-08-21T22:21:05.581Z,2.05
2022-08-21T22:23:39.543Z,2.10
2022-08-21T22:26:12.439Z,2.03
2022-08-21T22:28:43.766Z,1.80
2022-08-21T22:31:19.581Z,2.22
2022-08-21T22:34:05.677Z,2.05
2022-08-21T22:36:38.490Z,2.13
2022-08-21T22:39:17.465Z,1.98
2022-08-21T22:41:48.443Z,2.08
2022-08-21T22:44:22.707Z,2.00
2022-08-21T22:46:55.458Z,2.10
2022-08-21T22:49:33.454Z,1.85
2022-08-21T22:52:11.824Z,1.83
2022-08-21T22:54:43.388Z,2.13
2022-08-21T22:57:24.748Z,2.30
2022-08-21T22:59:57.343Z,2.15
2022-08-21T23:02:35.831Z,2.25
2022-08-21T23:05:10.474Z,2.03
2022-08-21T23:10:30.825Z,2.17
2022-08-21T23:13:09.121Z,2.22
2022-08-21T23:16:00.692Z,2.10
2022-08-21T23:18:38.667Z,2.10
2022-08-21T23:21:17.114Z,2.05
2022-08-21T23:24:01.563Z,1.88
2022-08-21T23:26:37.530Z,2.50
2022-08-21T23:29:24.861Z,2.42
2022-08-21T23:32:03.729Z,1.80
2022-08-21T23:34:42.325Z,2.22
2022-08-21T23:40:50.661Z,2.08
2022-08-21T23:43:33.149Z,2.42
2022-08-21T23:46:17.257Z,1.90
2022-08-21T23:48:55.298Z,2.50
2022-08-21T23:51:33.780Z,2.90
2022-08-21T23:54:09.490Z,2.58
2022-08-21T23:56:53.039Z,2.15
2022-08-21T23:59:43.747Z,2.35
